createdAt,value
2022-08-17T00:00:53.782Z,23.9
2022-08-17T00:03:31.987Z,23.9
2022-08-17T00:06:03.850Z,23.9
2022-08-17T00:08:36.964Z,24
2022-08-17T00:11:09.566Z,23.9
2022-08-17T00:13:42.322Z,23.9
2022-08-17T00:16:14.753Z,23.9
2022-08-17T00:19:09.264Z,23.9
2022-08-17T00:22:37.553Z,23.9
2022-08-17T00:25:08.324Z,23.8
2022-08-17T00:27:41.047Z,23.8
2022-08-17T00:30:13.834Z,23.8
2022-08-17T00:33:17.722Z,23.7
2022-08-17T00:35:50.210Z,23.6
2022-08-17T00:38:22.897Z,23.5
2022-08-17T00:41:00.171Z,23.4
2022-08-17T00:43:31.793Z,23.3
2022-08-17T00:46:04.862Z,23.2
2022-08-17T00:48:38.331Z,23.1
2022-08-17T00:51:10.662Z,23.1
2022-08-17T00:53:43.584Z,23
2022-08-17T00:56:16.047Z,23
2022-08-17T00:58:48.920Z,23
2022-08-17T01:01:22.889Z,23
2022-08-17T01:04:00.857Z,23
2022-08-17T01:06:32.760Z,23
2022-08-17T01:09:05.951Z,23
2022-08-17T01:11:39.144Z,22.9
2022-08-17T01:14:11.860Z,22.9
2022-08-17T01:16:44.701Z,22.8
2022-08-17T01:19:17.725Z,22.7
2022-08-17T01:21:50.626Z,22.7
2022-08-17T01:24:23.675Z,22.8
2022-08-17T01:27:00.706Z,22.8
2022-08-17T01:29:33.684Z,22.7
2022-08-17T01:32:06.223Z,22.6
2022-08-17T01:34:51.546Z,22.5
2022-08-17T01:37:23.259Z,22.5
2022-08-17T01:39:55.362Z,22.5
2022-08-17T01:42:27.955Z,22.4
2022-08-17T01:45:00.964Z,22.4
2022-08-17T01:47:36.928Z,22.4
2022-08-17T01:50:09.066Z,22.4
2022-08-17T01:52:42.087Z,22.4
2022-08-17T01:55:15.607Z,22.5
2022-08-17T01:57:48.904Z,22.5
2022-08-17T02:00:21.769Z,22.6
2022-08-17T02:02:54.645Z,22.5
2022-08-17T02:05:27.608Z,22.5
2022-08-17T02:08:02.903Z,22.5
2022-08-17T02:10:47.928Z,22.5
2022-08-17T02:13:19.405Z,22.4
2022-08-17T02:15:52.002Z,22.2
2022-08-17T02:18:24.821Z,22.2
2022-08-17T02:20:57.738Z,22.2
2022-08-17T02:23:30.367Z,22.2
2022-08-17T02:26:03.059Z,22.2
2022-08-17T02:28:35.626Z,22.1
2022-08-17T02:31:08.717Z,22.1
2022-08-17T02:33:44.835Z,22.1
2022-08-17T02:36:36.176Z,22.1
2022-08-17T02:39:08.346Z,22.1
2022-08-17T02:41:41.411Z,22.2
2022-08-17T02:44:40.931Z,22.1
2022-08-17T02:47:11.843Z,22.2
2022-08-17T02:49:56.846Z,22
2022-08-17T02:52:55.239Z,21.9
2022-08-17T02:55:36.489Z,21.9
2022-08-17T02:58:09.594Z,21.9
2022-08-17T03:00:43.125Z,21.9
2022-08-17T03:03:15.992Z,21.9
2022-08-17T03:05:48.437Z,21.9
2022-08-17T03:08:21.485Z,21.9
2022-08-17T03:10:54.073Z,21.9
2022-08-17T03:13:27.517Z,21.8
2022-08-17T03:16:00.440Z,21.8
2022-08-17T03:18:33.028Z,21.7
2022-08-17T03:21:05.752Z,21.7
2022-08-17T03:23:39.207Z,21.7
2022-08-17T03:26:17.117Z,21.7
2022-08-17T03:28:50.447Z,21.6
2022-08-17T03:31:23.470Z,21.6
2022-08-17T03:33:55.074Z,21.5
2022-08-17T03:36:27.879Z,21.5
2022-08-17T03:39:00.918Z,21.6
2022-08-17T03:41:34.001Z,21.6
2022-08-17T03:44:06.563Z,21.6
2022-08-17T03:46:39.682Z,21.6
2022-08-17T03:49:12.870Z,21.6
2022-08-17T03:51:44.668Z,21.6
2022-08-17T03:54:17.327Z,21.6
2022-08-17T03:56:50.766Z,21.7
2022-08-17T03:59:26.984Z,21.7
2022-08-17T04:02:00.149Z,21.7
2022-08-17T04:04:32.913Z,21.8
2022-08-17T04:07:05.942Z,21.8
2022-08-17T04:09:39.120Z,21.9
2022-08-17T04:12:12.041Z,21.8
2022-08-17T04:14:55.621Z,21.8
2022-08-17T04:17:26.589Z,21.8
2022-08-17T04:19:59.852Z,21.9
2022-08-17T04:22:53.508Z,21.9
2022-08-17T04:25:27.522Z,21.9
2022-08-17T04:28:00.740Z,21.9
2022-08-17T04:30:47.113Z,22
2022-08-17T04:33:19.939Z,22
2022-08-17T04:35:53.082Z,22.1
2022-08-17T04:38:26.420Z,22.2
2022-08-17T04:40:59.585Z,22.2
2022-08-17T04:43:32.499Z,22.3
2022-08-17T04:46:05.706Z,22.5
2022-08-17T04:48:38.928Z,22.6
2022-08-17T04:51:12.320Z,22.8
2022-08-17T04:53:44.436Z,22.9
2022-08-17T04:56:20.164Z,22.9
2022-08-17T04:58:52.391Z,22.9
2022-08-17T05:01:26.058Z,23
2022-08-17T05:04:35.802Z,23.2
2022-08-17T05:07:06.476Z,23.4
2022-08-17T05:09:39.413Z,23.4
2022-08-17T05:12:12.409Z,23.5
2022-08-17T05:14:45.116Z,23.7
2022-08-17T05:17:17.706Z,23.7
2022-08-17T05:19:53.052Z,23.8
2022-08-17T05:22:25.276Z,23.9
2022-08-17T05:25:02.763Z,24
2022-08-17T05:27:37.197Z,24.2
2022-08-17T05:30:13.818Z,24.3
2022-08-17T05:32:47.797Z,24.5
2022-08-17T05:35:21.335Z,24.8
2022-08-17T05:37:59.122Z,25
2022-08-17T05:40:34.290Z,25.2
2022-08-17T05:43:05.405Z,25.4
2022-08-17T05:45:57.231Z,25.5
2022-08-17T05:48:41.172Z,25.8
2022-08-17T05:51:13.446Z,26
2022-08-17T05:53:46.163Z,26.1
2022-08-17T05:56:31.616Z,26.2
2022-08-17T05:59:05.120Z,26.3
2022-08-17T06:01:38.327Z,26.4
2022-08-17T06:04:13.293Z,26.6
2022-08-17T06:06:46.481Z,26.7
2022-08-17T06:09:34.579Z,26.8
2022-08-17T06:12:20.470Z,26.9
2022-08-17T06:14:52.463Z,27
2022-08-17T06:17:25.143Z,27.1
2022-08-17T06:19:59.095Z,27.2
2022-08-17T06:22:32.042Z,27.4
2022-08-17T06:25:11.626Z,27.5
2022-08-17T06:27:43.749Z,27.6
2022-08-17T06:30:16.544Z,27.6
2022-08-17T06:32:50.707Z,27.7
2022-08-17T06:35:31.906Z,27.9
2022-08-17T06:38:05.666Z,27.9
2022-08-17T06:40:38.812Z,27.9
2022-08-17T06:43:15.002Z,28
2022-08-17T06:45:47.534Z,28
2022-08-17T06:48:21.430Z,28
2022-08-17T06:50:54.661Z,28.1
2022-08-17T06:53:26.950Z,28.1
2022-08-17T06:55:59.942Z,28.2
2022-08-17T06:58:33.770Z,28.2
2022-08-17T07:01:08.230Z,28.3
2022-08-17T07:03:40.611Z,28.4
2022-08-17T07:06:13.970Z,28.5
2022-08-17T07:08:46.633Z,28.5
2022-08-17T07:11:20.018Z,28.6
2022-08-17T07:13:53.233Z,28.8
2022-08-17T07:16:25.857Z,28.8
2022-08-17T07:18:59.794Z,28.8
2022-08-17T07:21:32.392Z,29
2022-08-17T07:24:04.782Z,29.2
2022-08-17T07:26:37.941Z,29.3
2022-08-17T07:29:11.029Z,29.3
2022-08-17T07:31:43.463Z,29.3
2022-08-17T07:34:16.220Z,29.3
2022-08-17T07:36:50.313Z,29.4
2022-08-17T07:39:21.179Z,29.5
2022-08-17T07:42:00.689Z,29.6
2022-08-17T07:44:32.422Z,29.6
2022-08-17T07:47:07.061Z,29.8
2022-08-17T07:49:38.546Z,29.9
2022-08-17T07:52:53.248Z,30
2022-08-17T07:55:24.725Z,30
2022-08-17T07:57:58.043Z,30.1
2022-08-17T08:00:33.712Z,30.3
2022-08-17T08:03:07.304Z,30.3
2022-08-17T08:05:52.398Z,30.4
2022-08-17T08:08:23.833Z,30.7
2022-08-17T08:10:57.185Z,30.8
2022-08-17T08:13:30.272Z,30.7
2022-08-17T08:16:04.225Z,30.8
2022-08-17T08:18:58.583Z,30.8
2022-08-17T08:21:28.946Z,30.9
2022-08-17T08:24:01.860Z,30.9
2022-08-17T08:26:34.712Z,31
2022-08-17T08:29:07.265Z,31.1
2022-08-17T08:31:43.016Z,31.2
2022-08-17T08:35:04.443Z,31.3
2022-08-17T08:37:43.918Z,31.3
2022-08-17T08:40:15.105Z,31.4
2022-08-17T08:42:47.769Z,31.5
2022-08-17T08:45:21.118Z,31.5
2022-08-17T08:47:54.484Z,31.5
2022-08-17T08:50:39.523Z,31.6
2022-08-17T08:53:10.232Z,31.8
2022-08-17T08:55:46.715Z,31.8
2022-08-17T08:58:43.259Z,31.9
2022-08-17T09:01:18.289Z,32
2022-08-17T09:03:54.350Z,32.1
2022-08-17T09:06:40.577Z,32
2022-08-17T09:09:11.936Z,32
2022-08-17T09:12:05.098Z,32.1
2022-08-17T09:14:48.185Z,32
2022-08-17T09:17:19.392Z,32.2
2022-08-17T09:19:52.025Z,32.3
2022-08-17T09:22:24.941Z,32.2
2022-08-17T09:24:57.870Z,32.3
2022-08-17T09:27:30.743Z,32.4
2022-08-17T09:30:03.942Z,32.5
2022-08-17T09:32:36.177Z,32.6
2022-08-17T09:35:10.152Z,32.7
2022-08-17T09:37:42.273Z,32.7
2022-08-17T09:40:15.927Z,32.8
2022-08-17T09:42:48.258Z,32.7
2022-08-17T09:45:21.350Z,32.7
2022-08-17T09:47:54.226Z,32.9
2022-08-17T09:51:07.497Z,33
2022-08-17T09:53:38.023Z,33
2022-08-17T09:56:10.573Z,33
2022-08-17T09:58:43.967Z,33
2022-08-17T10:01:16.928Z,33
2022-08-17T10:03:49.331Z,33
2022-08-17T10:06:22.931Z,33
2022-08-17T10:08:55.218Z,33.2
2022-08-17T10:11:43.683Z,33.2
2022-08-17T10:14:54.229Z,33.2
2022-08-17T10:17:26.860Z,33.2
2022-08-17T10:19:59.854Z,33.2
2022-08-17T10:22:38.995Z,33.3
2022-08-17T10:25:54.479Z,33.3
2022-08-17T10:28:31.008Z,33.5
2022-08-17T10:31:36.673Z,33.3
2022-08-17T10:34:06.872Z,33.3
2022-08-17T10:36:39.605Z,33.4
2022-08-17T10:39:12.605Z,33.3
2022-08-17T10:41:45.832Z,33.5
2022-08-17T10:44:41.966Z,33.5
2022-08-17T10:47:12.950Z,33.5
2022-08-17T10:49:46.026Z,33.6
2022-08-17T10:52:18.384Z,33.5
2022-08-17T10:54:59.305Z,33.6
2022-08-17T10:57:30.515Z,33.6
2022-08-17T11:00:03.207Z,33.6
2022-08-17T11:02:36.549Z,33.5
2022-08-17T11:05:08.848Z,33.5
2022-08-17T11:07:41.619Z,33.5
2022-08-17T11:10:14.598Z,33.5
2022-08-17T11:12:46.893Z,33.5
2022-08-17T11:15:20.941Z,33.6
2022-08-17T11:17:53.278Z,33.7
2022-08-17T11:20:26.117Z,33.7
2022-08-17T11:22:58.967Z,33.7
2022-08-17T11:25:31.651Z,33.6
2022-08-17T11:28:04.347Z,33.1
2022-08-17T11:30:37.271Z,32.7
2022-08-17T11:33:13.185Z,32.5
2022-08-17T11:35:44.766Z,32.9
2022-08-17T11:38:17.805Z,33.2
2022-08-17T11:40:50.299Z,33.4
2022-08-17T11:43:26.435Z,33.5
2022-08-17T11:46:00.536Z,33.5
2022-08-17T11:48:35.568Z,33.5
2022-08-17T11:51:08.106Z,33.7
2022-08-17T11:53:40.976Z,33.7
2022-08-17T11:56:13.207Z,33.9
2022-08-17T11:58:45.779Z,34.1
2022-08-17T12:01:18.007Z,34.1
2022-08-17T12:03:56.536Z,34.1
2022-08-17T12:06:34.517Z,34.2
2022-08-17T12:09:05.700Z,34.2
2022-08-17T12:12:15.472Z,34.2
2022-08-17T12:15:12.730Z,34.3
2022-08-17T12:17:43.600Z,34.3
2022-08-17T12:20:15.710Z,34.5
2022-08-17T12:22:47.809Z,34.4
2022-08-17T12:25:20.672Z,34.3
2022-08-17T12:28:09.274Z,34.4
2022-08-17T12:30:42.137Z,34.7
2022-08-17T12:33:29.666Z,34.7
2022-08-17T12:36:01.347Z,34.2
2022-08-17T12:38:35.661Z,34.2
2022-08-17T12:41:08.848Z,34.6
2022-08-17T12:43:41.324Z,35
2022-08-17T12:46:16.317Z,35.2
2022-08-17T12:49:00.719Z,35.3
2022-08-17T12:51:32.302Z,35.5
2022-08-17T12:54:04.930Z,35.7
2022-08-17T12:56:38.096Z,35.8
2022-08-17T12:59:28.838Z,35.9
2022-08-17T13:02:04.091Z,36.1
2022-08-17T13:04:36.085Z,36.1
2022-08-17T13:07:08.600Z,36
2022-08-17T13:09:41.706Z,36.1
2022-08-17T13:12:14.382Z,36.2
2022-08-17T13:14:45.832Z,36.4
2022-08-17T13:17:18.029Z,36.5
2022-08-17T13:19:50.617Z,36.2
2022-08-17T13:22:27.780Z,36.3
2022-08-17T13:25:01.393Z,36.2
2022-08-17T13:27:32.720Z,36.2
2022-08-17T13:30:04.952Z,35.8
2022-08-17T13:32:43.040Z,35.6
2022-08-17T13:35:41.439Z,35.5
2022-08-17T13:38:22.511Z,35.3
2022-08-17T13:40:54.867Z,35.1
2022-08-17T13:43:28.141Z,34.9
2022-08-17T13:46:01.615Z,34.8
2022-08-17T13:48:34.361Z,34.8
2022-08-17T13:51:05.311Z,34.5
2022-08-17T13:53:41.071Z,34.4
2022-08-17T13:56:40.471Z,34.4
2022-08-17T13:59:11.060Z,34.3
2022-08-17T14:01:44.181Z,34.3
2022-08-17T14:04:27.885Z,34.2
2022-08-17T14:07:01.383Z,34.1
2022-08-17T14:09:38.128Z,34
2022-08-17T14:12:09.235Z,33.8
2022-08-17T14:14:42.639Z,33.6
2022-08-17T14:17:15.295Z,33.5
2022-08-17T14:19:47.685Z,33.5
2022-08-17T14:22:22.884Z,33.5
2022-08-17T14:24:54.567Z,33.5
2022-08-17T14:27:27.956Z,33.5
2022-08-17T14:30:01.239Z,33.4
2022-08-17T14:32:33.783Z,33.4
2022-08-17T14:35:07.205Z,33.2
2022-08-17T14:37:40.097Z,33.1
2022-08-17T14:40:13.384Z,33
2022-08-17T14:42:46.936Z,33
2022-08-17T14:45:34.267Z,33
2022-08-17T14:48:06.007Z,32.9
2022-08-17T14:50:38.751Z,32.8
2022-08-17T14:53:11.840Z,32.7
2022-08-17T14:55:49.368Z,32.6
2022-08-17T14:58:21.355Z,32.5
2022-08-17T15:00:54.643Z,32.4
2022-08-17T15:03:27.359Z,32.3
2022-08-17T15:06:00.486Z,32.2
2022-08-17T15:08:32.783Z,32.2
2022-08-17T15:11:14.734Z,32.1
2022-08-17T15:13:53.827Z,32.1
2022-08-17T15:16:25.222Z,32
2022-08-17T15:18:57.637Z,32
2022-08-17T15:21:30.743Z,31.9
2022-08-17T15:24:03.432Z,31.8
2022-08-17T15:26:36.419Z,31.8
2022-08-17T15:29:09.093Z,31.7
2022-08-17T15:31:42.429Z,31.7
2022-08-17T15:34:15.843Z,31.7
2022-08-17T15:36:50.182Z,31.7
2022-08-17T15:39:22.054Z,31.6
2022-08-17T15:41:59.427Z,31.6
2022-08-17T15:44:35.703Z,31.6
2022-08-17T15:47:07.393Z,31.6
2022-08-17T15:49:41.012Z,31.5
2022-08-17T15:52:14.184Z,31.6
2022-08-17T15:54:47.213Z,31.5
2022-08-17T15:57:20.017Z,31.5
2022-08-17T15:59:59.790Z,31.5
2022-08-17T16:04:30.580Z,31.5
2022-08-17T16:07:02.440Z,31.5
2022-08-17T16:09:34.745Z,31.4
2022-08-17T16:12:08.034Z,31.4
2022-08-17T16:14:40.850Z,31.4
2022-08-17T16:17:41.463Z,31.4
2022-08-17T16:20:24.420Z,31.4
2022-08-17T16:22:56.142Z,31.4
2022-08-17T16:25:54.932Z,31.4
2022-08-17T16:28:37.026Z,31.3
2022-08-17T16:31:10.084Z,31.3
2022-08-17T16:33:42.020Z,31.3
2022-08-17T16:36:57.093Z,31.3
2022-08-17T16:39:28.772Z,31.3
2022-08-17T16:42:04.626Z,31.3
2022-08-17T16:44:36.193Z,31.2
2022-08-17T16:47:09.045Z,31.1
2022-08-17T16:49:41.441Z,31.1
2022-08-17T16:52:33.222Z,31.1
2022-08-17T16:55:04.082Z,31
2022-08-17T16:57:51.582Z,31
2022-08-17T17:00:22.727Z,31
2022-08-17T17:02:55.589Z,30.9
2022-08-17T17:05:28.271Z,30.9
2022-08-17T17:08:01.235Z,30.8
2022-08-17T17:10:33.740Z,30.8
2022-08-17T17:13:12.585Z,30.8
2022-08-17T17:15:45.968Z,30.7
2022-08-17T17:18:19.135Z,30.7
2022-08-17T17:20:51.987Z,30.6
2022-08-17T17:23:24.574Z,30.7
2022-08-17T17:25:57.008Z,30.6
2022-08-17T17:28:30.270Z,30.5
2022-08-17T17:31:02.907Z,30.5
2022-08-17T17:33:36.721Z,30.5
2022-08-17T17:36:08.838Z,30.4
2022-08-17T17:38:41.912Z,30.4
2022-08-17T17:41:14.295Z,30.4
2022-08-17T17:43:47.629Z,30.3
2022-08-17T17:46:29.694Z,30.3
2022-08-17T17:49:01.226Z,30.3
2022-08-17T17:52:19.841Z,30.3
2022-08-17T17:54:51.005Z,30.2
2022-08-17T17:57:23.742Z,30.1
2022-08-17T17:59:56.651Z,30
2022-08-17T18:02:28.865Z,30
2022-08-17T18:05:01.985Z,29.9
2022-08-17T18:07:35.445Z,29.9
2022-08-17T18:10:32.585Z,29.8
2022-08-17T18:13:04.015Z,29.8
2022-08-17T18:15:36.497Z,29.8
2022-08-17T18:18:09.376Z,29.7
2022-08-17T18:20:56.627Z,29.7
2022-08-17T18:23:29.550Z,29.7
2022-08-17T18:26:02.054Z,29.6
2022-08-17T18:28:34.765Z,29.6
2022-08-17T18:31:07.680Z,29.5
2022-08-17T18:33:44.154Z,29.5
2022-08-17T18:36:16.072Z,29.5
2022-08-17T18:38:50.565Z,29.5
2022-08-17T18:41:23.209Z,29.4
2022-08-17T18:43:58.834Z,29.4
2022-08-17T18:46:31.325Z,29.3
2022-08-17T18:49:03.841Z,29.2
2022-08-17T18:51:43.863Z,29.1
2022-08-17T18:54:15.228Z,29
2022-08-17T18:56:48.139Z,29
2022-08-17T18:59:20.943Z,29
2022-08-17T19:02:16.212Z,28.9
2022-08-17T19:05:15.568Z,28.7
2022-08-17T19:07:47.684Z,28.6
2022-08-17T19:10:22.450Z,28.5
2022-08-17T19:13:01.750Z,28.4
2022-08-17T19:16:16.666Z,28.3
2022-08-17T19:18:47.861Z,28.1
2022-08-17T19:21:18.528Z,28
2022-08-17T19:23:55.376Z,28
2022-08-17T19:26:58.012Z,27.9
2022-08-17T19:29:29.094Z,27.9
2022-08-17T19:32:01.353Z,27.8
2022-08-17T19:34:35.199Z,27.7
2022-08-17T19:37:07.784Z,27.6
2022-08-17T19:39:40.572Z,27.5
2022-08-17T19:42:13.314Z,27.5
2022-08-17T19:44:47.932Z,27.5
2022-08-17T19:48:02.775Z,27.4
2022-08-17T19:50:34.553Z,27.4
2022-08-17T19:53:07.276Z,27.3
2022-08-17T19:55:48.993Z,27.3
2022-08-17T19:58:25.724Z,27.2
2022-08-17T20:00:58.177Z,27.1
2022-08-17T20:03:30.986Z,27.1
2022-08-17T20:06:15.568Z,27
2022-08-17T20:08:46.399Z,27
2022-08-17T20:11:18.981Z,26.9
2022-08-17T20:13:51.944Z,26.8
2022-08-17T20:16:24.620Z,26.7
2022-08-17T20:18:58.345Z,26.7
2022-08-17T20:21:38.032Z,26.6
2022-08-17T20:24:11.184Z,26.5
2022-08-17T20:27:00.345Z,26.4
2022-08-17T20:29:41.207Z,26.4
2022-08-17T20:32:13.083Z,26.4
2022-08-17T20:34:46.420Z,26.4
2022-08-17T20:37:19.252Z,26.4
2022-08-17T20:39:52.103Z,26.4
2022-08-17T20:42:24.851Z,26.3
2022-08-17T20:44:58.369Z,26.2
2022-08-17T20:47:31.061Z,26.1
2022-08-17T20:50:03.922Z,26.1
2022-08-17T20:52:36.833Z,26.1
2022-08-17T20:55:10.289Z,26
2022-08-17T20:57:42.383Z,26
2022-08-17T21:00:15.909Z,25.9
2022-08-17T21:02:48.738Z,25.9
2022-08-17T21:05:25.301Z,25.9
2022-08-17T21:08:08.396Z,25.9
2022-08-17T21:10:40.912Z,25.8
2022-08-17T21:13:16.025Z,25.7
2022-08-17T21:15:48.950Z,25.6
2022-08-17T21:18:24.608Z,25.6
2022-08-17T21:20:58.764Z,25.6
2022-08-17T21:23:32.069Z,25.5
2022-08-17T21:26:04.166Z,25.5
2022-08-17T21:29:40.245Z,25.4
2022-08-17T21:32:21.058Z,25.3
2022-08-17T21:34:56.283Z,25.2
2022-08-17T21:37:29.075Z,25.1
2022-08-17T21:40:02.275Z,25
2022-08-17T21:42:35.196Z,25
2022-08-17T21:45:06.591Z,24.9
2022-08-17T21:47:39.375Z,24.9
2022-08-17T21:50:12.512Z,24.8
2022-08-17T21:52:45.775Z,24.7
2022-08-17T21:55:21.463Z,24.7
2022-08-17T21:58:16.343Z,24.8
2022-08-17T22:00:48.853Z,24.9
2022-08-17T22:03:21.848Z,25
2022-08-17T22:05:54.573Z,24.9
2022-08-17T22:08:28.931Z,24.9
2022-08-17T22:11:02.841Z,24.8
2022-08-17T22:13:36.243Z,24.8
2022-08-17T22:16:30.113Z,24.8
2022-08-17T22:19:01.772Z,24.8
2022-08-17T22:21:35.881Z,24.7
2022-08-17T22:24:08.364Z,24.7
2022-08-17T22:26:41.517Z,24.7
2022-08-17T22:29:13.946Z,24.7
2022-08-17T22:31:47.408Z,24.7
2022-08-17T22:34:20.026Z,24.7
2022-08-17T22:36:54.375Z,24.7
2022-08-17T22:39:26.900Z,24.7
2022-08-17T22:41:59.932Z,24.7
2022-08-17T22:44:33.485Z,24.7
2022-08-17T22:47:12.218Z,24.7
2022-08-17T22:49:55.358Z,24.8
2022-08-17T22:52:33.388Z,24.8
2022-08-17T22:55:10.916Z,24.8
2022-08-17T22:57:42.583Z,24.8
2022-08-17T23:00:15.765Z,24.7
2022-08-17T23:02:56.387Z,24.6
2022-08-17T23:05:29.006Z,24.6
2022-08-17T23:08:01.984Z,24.6
2022-08-17T23:10:34.408Z,24.6
2022-08-17T23:13:07.575Z,24.5
2022-08-17T23:15:40.231Z,24.5
2022-08-17T23:18:12.853Z,24.5
2022-08-17T23:20:45.170Z,24.5
2022-08-17T23:23:24.942Z,24.5
2022-08-17T23:25:56.696Z,24.4
2022-08-17T23:28:29.813Z,24.4
2022-08-17T23:31:04.261Z,24.4
2022-08-17T23:33:36.376Z,24.3
2022-08-17T23:36:08.668Z,24.3
2022-08-17T23:38:41.117Z,24.2
2022-08-17T23:41:14.413Z,24.2
2022-08-17T23:43:47.168Z,24.1
2022-08-17T23:46:20.666Z,24.1
2022-08-17T23:48:55.097Z,24.1
2022-08-17T23:51:28.669Z,24
2022-08-17T23:54:09.093Z,24
2022-08-17T23:56:40.832Z,24
2022-08-17T23:59:14.294Z,24
